sensor_id;sensor_type;location;lat;lon;timestamp;P1;durP1;ratioP1;P2;durP2;ratioP2
67160;SDS011;54088;52.238;21.104;2022-08-03T00:01:36;12.25;;;7.90;;
67160;SDS011;54088;52.238;21.104;2022-08-03T00:04:03;11.82;;;8.52;;
67160;SDS011;54088;52.238;21.104;2022-08-03T00:06:30;13.57;;;8.90;;
67160;SDS011;54088;52.238;21.104;2022-08-03T00:08:56;12.93;;;8.32;;
67160;SDS011;54088;52.238;21.104;2022-08-03T00:11:21;11.60;;;7.75;;
67160;SDS011;54088;52.238;21.104;2022-08-03T00:13:47;12.38;;;8.70;;
67160;SDS011;54088;52.238;21.104;2022-08-03T00:16:13;13.02;;;8.30;;
67160;SDS011;54088;52.238;21.104;2022-08-03T00:18:40;12.80;;;8.82;;
67160;SDS011;54088;52.238;21.104;2022-08-03T00:21:05;10.60;;;8.13;;
67160;SDS011;54088;52.238;21.104;2022-08-03T00:23:31;12.15;;;8.40;;
67160;SDS011;54088;52.238;21.104;2022-08-03T00:25:58;10.55;;;7.78;;
67160;SDS011;54088;52.238;21.104;2022-08-03T00:28:24;12.02;;;8.10;;
67160;SDS011;54088;52.238;21.104;2022-08-03T00:30:49;11.48;;;8.20;;
67160;SDS011;54088;52.238;21.104;2022-08-03T00:33:15;11.75;;;8.10;;
67160;SDS011;54088;52.238;21.104;2022-08-03T00:35:41;12.10;;;8.43;;
67160;SDS011;54088;52.238;21.104;2022-08-03T00:38:07;11.52;;;8.18;;
67160;SDS011;54088;52.238;21.104;2022-08-03T00:40:32;10.65;;;8.40;;
67160;SDS011;54088;52.238;21.104;2022-08-03T00:43:03;10.43;;;8.00;;
67160;SDS011;54088;52.238;21.104;2022-08-03T00:45:31;10.45;;;7.57;;
67160;SDS011;54088;52.238;21.104;2022-08-03T00:47:59;11.63;;;8.45;;
67160;SDS011;54088;52.238;21.104;2022-08-03T00:50:27;13.93;;;8.30;;
67160;SDS011;54088;52.238;21.104;2022-08-03T00:52:55;14.10;;;8.18;;
67160;SDS011;54088;52.238;21.104;2022-08-03T00:55:22;11.68;;;8.45;;
67160;SDS011;54088;52.238;21.104;2022-08-03T00:57:48;11.25;;;8.23;;
67160;SDS011;54088;52.238;21.104;2022-08-03T01:00:15;13.15;;;8.50;;
67160;SDS011;54088;52.238;21.104;2022-08-03T01:02:42;12.90;;;8.30;;
67160;SDS011;54088;52.238;21.104;2022-08-03T01:05:08;14.35;;;8.70;;
67160;SDS011;54088;52.238;21.104;2022-08-03T01:10:25;11.75;;;8.95;;
67160;SDS011;54088;52.238;21.104;2022-08-03T01:15:42;10.20;;;8.50;;
67160;SDS011;54088;52.238;21.104;2022-08-03T01:18:26;10.70;;;8.45;;
67160;SDS011;54088;52.238;21.104;2022-08-03T01:21:10;12.90;;;8.43;;
67160;SDS011;54088;52.238;21.104;2022-08-03T01:27:03;11.13;;;8.18;;
67160;SDS011;54088;52.238;21.104;2022-08-03T01:31:58;14.13;;;9.82;;
67160;SDS011;54088;52.238;21.104;2022-08-03T01:34:31;11.20;;;9.02;;
67160;SDS011;54088;52.238;21.104;2022-08-03T01:37:04;14.35;;;8.52;;
67160;SDS011;54088;52.238;21.104;2022-08-03T01:39:33;12.02;;;9.05;;
67160;SDS011;54088;52.238;21.104;2022-08-03T01:42:02;14.52;;;9.98;;
67160;SDS011;54088;52.238;21.104;2022-08-03T01:44:31;13.50;;;9.93;;
67160;SDS011;54088;52.238;21.104;2022-08-03T01:47:01;11.82;;;10.05;;
67160;SDS011;54088;52.238;21.104;2022-08-03T01:49:27;11.48;;;10.18;;
67160;SDS011;54088;52.238;21.104;2022-08-03T01:51:56;13.73;;;9.85;;
67160;SDS011;54088;52.238;21.104;2022-08-03T01:54:22;11.75;;;9.85;;
67160;SDS011;54088;52.238;21.104;2022-08-03T01:56:50;10.27;;;8.55;;
67160;SDS011;54088;52.238;21.104;2022-08-03T01:59:18;12.68;;;9.25;;
67160;SDS011;54088;52.238;21.104;2022-08-03T02:01:46;13.77;;;9.00;;
67160;SDS011;54088;52.238;21.104;2022-08-03T02:04:13;12.80;;;10.02;;
67160;SDS011;54088;52.238;21.104;2022-08-03T02:06:42;13.50;;;10.20;;
67160;SDS011;54088;52.238;21.104;2022-08-03T02:09:11;11.65;;;10.02;;
67160;SDS011;54088;52.238;21.104;2022-08-03T02:11:38;12.98;;;10.02;;
67160;SDS011;54088;52.238;21.104;2022-08-03T02:14:04;12.95;;;10.30;;
67160;SDS011;54088;52.238;21.104;2022-08-03T02:16:31;13.35;;;10.43;;
67160;SDS011;54088;52.238;21.104;2022-08-03T02:19:00;11.98;;;10.60;;
67160;SDS011;54088;52.238;21.104;2022-08-03T02:21:28;13.05;;;10.38;;
67160;SDS011;54088;52.238;21.104;2022-08-03T02:23:56;12.27;;;10.40;;
67160;SDS011;54088;52.238;21.104;2022-08-03T02:26:22;12.15;;;10.02;;
67160;SDS011;54088;52.238;21.104;2022-08-03T02:28:52;11.75;;;10.02;;
67160;SDS011;54088;52.238;21.104;2022-08-03T02:31:21;14.38;;;11.00;;
67160;SDS011;54088;52.238;21.104;2022-08-03T02:33:52;11.93;;;10.73;;
67160;SDS011;54088;52.238;21.104;2022-08-03T02:36:27;12.23;;;10.68;;
67160;SDS011;54088;52.238;21.104;2022-08-03T02:38:55;17.10;;;10.95;;
67160;SDS011;54088;52.238;21.104;2022-08-03T02:41:26;13.77;;;10.88;;
67160;SDS011;54088;52.238;21.104;2022-08-03T02:43:56;13.65;;;11.10;;
67160;SDS011;54088;52.238;21.104;2022-08-03T02:46:27;12.85;;;10.70;;
67160;SDS011;54088;52.238;21.104;2022-08-03T02:48:56;13.40;;;11.68;;
67160;SDS011;54088;52.238;21.104;2022-08-03T02:51:25;13.18;;;11.40;;
67160;SDS011;54088;52.238;21.104;2022-08-03T02:53:54;14.95;;;12.88;;
67160;SDS011;54088;52.238;21.104;2022-08-03T02:56:22;15.27;;;12.88;;
67160;SDS011;54088;52.238;21.104;2022-08-03T02:58:49;15.55;;;13.93;;
67160;SDS011;54088;52.238;21.104;2022-08-03T03:01:18;16.88;;;15.05;;
67160;SDS011;54088;52.238;21.104;2022-08-03T03:03:45;15.95;;;13.13;;
67160;SDS011;54088;52.238;21.104;2022-08-03T03:06:13;20.00;;;13.43;;
67160;SDS011;54088;52.238;21.104;2022-08-03T03:08:41;16.88;;;15.25;;
67160;SDS011;54088;52.238;21.104;2022-08-03T03:11:07;16.63;;;14.93;;
67160;SDS011;54088;52.238;21.104;2022-08-03T03:13:34;17.05;;;15.25;;
67160;SDS011;54088;52.238;21.104;2022-08-03T03:16:01;16.45;;;14.70;;
67160;SDS011;54088;52.238;21.104;2022-08-03T03:18:30;17.08;;;14.95;;
67160;SDS011;54088;52.238;21.104;2022-08-03T03:20:57;18.30;;;16.30;;
67160;SDS011;54088;52.238;21.104;2022-08-03T03:23:25;17.05;;;15.35;;
67160;SDS011;54088;52.238;21.104;2022-08-03T03:25:53;17.80;;;16.02;;
67160;SDS011;54088;52.238;21.104;2022-08-03T03:28:20;16.60;;;14.90;;
67160;SDS011;54088;52.238;21.104;2022-08-03T03:30:48;16.10;;;14.30;;
67160;SDS011;54088;52.238;21.104;2022-08-03T03:33:13;16.20;;;14.52;;
67160;SDS011;54088;52.238;21.104;2022-08-03T03:35:40;16.23;;;14.35;;
67160;SDS011;54088;52.238;21.104;2022-08-03T03:38:07;16.27;;;14.68;;
67160;SDS011;54088;52.238;21.104;2022-08-03T03:40:36;19.10;;;16.58;;
67160;SDS011;54088;52.238;21.104;2022-08-03T03:43:04;17.25;;;14.95;;
67160;SDS011;54088;52.238;21.104;2022-08-03T03:45:33;16.63;;;15.00;;
67160;SDS011;54088;52.238;21.104;2022-08-03T03:47:59;17.33;;;15.52;;
67160;SDS011;54088;52.238;21.104;2022-08-03T03:50:29;19.55;;;14.82;;
67160;SDS011;54088;52.238;21.104;2022-08-03T03:52:56;15.27;;;13.68;;
67160;SDS011;54088;52.238;21.104;2022-08-03T03:55:22;16.15;;;14.48;;
67160;SDS011;54088;52.238;21.104;2022-08-03T03:57:48;16.05;;;13.68;;
67160;SDS011;54088;52.238;21.104;2022-08-03T04:00:14;15.05;;;12.90;;
67160;SDS011;54088;52.238;21.104;2022-08-03T04:02:41;14.43;;;12.93;;
67160;SDS011;54088;52.238;21.104;2022-08-03T04:05:07;16.17;;;14.25;;
67160;SDS011;54088;52.238;21.104;2022-08-03T04:07:55;15.30;;;13.75;;
67160;SDS011;54088;52.238;21.104;2022-08-03T04:10:51;15.45;;;13.95;;
67160;SDS011;54088;52.238;21.104;2022-08-03T04:13:41;15.35;;;13.55;;
67160;SDS011;54088;52.238;21.104;2022-08-03T04:16:11;15.18;;;13.65;;
67160;SDS011;54088;52.238;21.104;2022-08-03T04:18:40;16.13;;;14.27;;
67160;SDS011;54088;52.238;21.104;2022-08-03T04:21:09;16.25;;;14.57;;
67160;SDS011;54088;52.238;21.104;2022-08-03T04:23:38;16.17;;;14.45;;
67160;SDS011;54088;52.238;21.104;2022-08-03T04:28:34;17.40;;;15.63;;
67160;SDS011;54088;52.238;21.104;2022-08-03T04:31:02;16.75;;;15.00;;
67160;SDS011;54088;52.238;21.104;2022-08-03T04:33:33;17.92;;;16.08;;
67160;SDS011;54088;52.238;21.104;2022-08-03T04:36:02;16.63;;;14.93;;
67160;SDS011;54088;52.238;21.104;2022-08-03T04:38:31;16.10;;;14.50;;
67160;SDS011;54088;52.238;21.104;2022-08-03T04:41:02;16.92;;;15.23;;
67160;SDS011;54088;52.238;21.104;2022-08-03T04:43:31;18.27;;;15.95;;
67160;SDS011;54088;52.238;21.104;2022-08-03T04:45:58;16.30;;;14.75;;
67160;SDS011;54088;52.238;21.104;2022-08-03T04:48:25;17.77;;;15.98;;
67160;SDS011;54088;52.238;21.104;2022-08-03T04:50:51;16.50;;;14.93;;
67160;SDS011;54088;52.238;21.104;2022-08-03T04:53:17;17.13;;;15.48;;
67160;SDS011;54088;52.238;21.104;2022-08-03T04:55:43;17.42;;;15.68;;
67160;SDS011;54088;52.238;21.104;2022-08-03T04:58:09;17.42;;;15.55;;
67160;SDS011;54088;52.238;21.104;2022-08-03T05:00:35;19.77;;;17.88;;
67160;SDS011;54088;52.238;21.104;2022-08-03T05:03:00;20.88;;;18.88;;
67160;SDS011;54088;52.238;21.104;2022-08-03T05:05:26;19.58;;;17.50;;
67160;SDS011;54088;52.238;21.104;2022-08-03T05:07:51;17.98;;;16.17;;
67160;SDS011;54088;52.238;21.104;2022-08-03T05:10:17;19.67;;;17.60;;
67160;SDS011;54088;52.238;21.104;2022-08-03T05:12:44;19.80;;;17.90;;
67160;SDS011;54088;52.238;21.104;2022-08-03T05:15:10;19.25;;;17.25;;
67160;SDS011;54088;52.238;21.104;2022-08-03T05:17:36;19.70;;;17.88;;
67160;SDS011;54088;52.238;21.104;2022-08-03T05:20:02;20.48;;;18.38;;
67160;SDS011;54088;52.238;21.104;2022-08-03T05:22:28;22.63;;;18.35;;
67160;SDS011;54088;52.238;21.104;2022-08-03T05:24:54;20.13;;;18.08;;
67160;SDS011;54088;52.238;21.104;2022-08-03T05:27:19;20.38;;;18.20;;
67160;SDS011;54088;52.238;21.104;2022-08-03T05:29:45;21.00;;;19.08;;
67160;SDS011;54088;52.238;21.104;2022-08-03T05:32:15;20.00;;;18.08;;
67160;SDS011;54088;52.238;21.104;2022-08-03T05:34:41;20.65;;;18.60;;
67160;SDS011;54088;52.238;21.104;2022-08-03T05:37:07;19.60;;;17.70;;
67160;SDS011;54088;52.238;21.104;2022-08-03T05:39:33;19.98;;;18.02;;
67160;SDS011;54088;52.238;21.104;2022-08-03T05:41:59;22.40;;;18.08;;
67160;SDS011;54088;52.238;21.104;2022-08-03T05:44:25;18.92;;;17.08;;
67160;SDS011;54088;52.238;21.104;2022-08-03T05:46:51;19.58;;;17.60;;
67160;SDS011;54088;52.238;21.104;2022-08-03T05:49:17;18.60;;;16.52;;
67160;SDS011;54088;52.238;21.104;2022-08-03T05:51:43;21.05;;;18.80;;
67160;SDS011;54088;52.238;21.104;2022-08-03T05:54:09;19.52;;;17.27;;
67160;SDS011;54088;52.238;21.104;2022-08-03T05:56:35;20.83;;;18.77;;
67160;SDS011;54088;52.238;21.104;2022-08-03T05:59:00;20.05;;;18.02;;
67160;SDS011;54088;52.238;21.104;2022-08-03T06:01:26;20.35;;;18.25;;
67160;SDS011;54088;52.238;21.104;2022-08-03T06:03:52;19.90;;;17.63;;
67160;SDS011;54088;52.238;21.104;2022-08-03T06:06:18;20.27;;;18.10;;
67160;SDS011;54088;52.238;21.104;2022-08-03T06:08:44;20.23;;;17.60;;
67160;SDS011;54088;52.238;21.104;2022-08-03T06:11:10;21.80;;;19.02;;
67160;SDS011;54088;52.238;21.104;2022-08-03T06:13:36;19.80;;;17.70;;
67160;SDS011;54088;52.238;21.104;2022-08-03T06:16:02;20.50;;;18.42;;
67160;SDS011;54088;52.238;21.104;2022-08-03T06:18:28;21.20;;;17.75;;
67160;SDS011;54088;52.238;21.104;2022-08-03T06:20:54;20.98;;;18.67;;
67160;SDS011;54088;52.238;21.104;2022-08-03T06:23:19;18.20;;;16.27;;
67160;SDS011;54088;52.238;21.104;2022-08-03T06:25:45;17.65;;;15.80;;
67160;SDS011;54088;52.238;21.104;2022-08-03T06:28:11;19.00;;;16.98;;
67160;SDS011;54088;52.238;21.104;2022-08-03T06:30:42;17.90;;;16.10;;
67160;SDS011;54088;52.238;21.104;2022-08-03T06:33:08;19.60;;;17.52;;
67160;SDS011;54088;52.238;21.104;2022-08-03T06:35:33;17.70;;;15.90;;
67160;SDS011;54088;52.238;21.104;2022-08-03T06:37:59;19.05;;;17.02;;
67160;SDS011;54088;52.238;21.104;2022-08-03T06:40:25;17.58;;;15.68;;
67160;SDS011;54088;52.238;21.104;2022-08-03T06:42:58;18.00;;;16.30;;
67160;SDS011;54088;52.238;21.104;2022-08-03T06:45:26;19.88;;;17.77;;
67160;SDS011;54088;52.238;21.104;2022-08-03T06:48:26;20.23;;;17.20;;
67160;SDS011;54088;52.238;21.104;2022-08-03T06:50:45;20.58;;;18.55;;
67160;SDS011;54088;52.238;21.104;2022-08-03T06:53:10;20.33;;;17.42;;
67160;SDS011;54088;52.238;21.104;2022-08-03T06:55:36;24.42;;;18.75;;
67160;SDS011;54088;52.238;21.104;2022-08-03T06:58:02;19.13;;;17.15;;
67160;SDS011;54088;52.238;21.104;2022-08-03T07:00:27;20.48;;;18.27;;
67160;SDS011;54088;52.238;21.104;2022-08-03T07:02:54;19.38;;;17.35;;
67160;SDS011;54088;52.238;21.104;2022-08-03T07:05:20;20.15;;;18.15;;
67160;SDS011;54088;52.238;21.104;2022-08-03T07:07:47;19.83;;;18.02;;
67160;SDS011;54088;52.238;21.104;2022-08-03T07:10:13;22.10;;;19.80;;
67160;SDS011;54088;52.238;21.104;2022-08-03T07:12:38;21.00;;;17.65;;
67160;SDS011;54088;52.238;21.104;2022-08-03T07:15:05;19.42;;;17.60;;
67160;SDS011;54088;52.238;21.104;2022-08-03T07:17:33;20.25;;;18.27;;
67160;SDS011;54088;52.238;21.104;2022-08-03T07:20:00;19.35;;;17.63;;
67160;SDS011;54088;52.238;21.104;2022-08-03T07:22:28;20.13;;;17.30;;
67160;SDS011;54088;52.238;21.104;2022-08-03T07:24:54;21.75;;;18.00;;
67160;SDS011;54088;52.238;21.104;2022-08-03T07:27:20;19.38;;;17.10;;
67160;SDS011;54088;52.238;21.104;2022-08-03T07:29:46;20.60;;;17.55;;
67160;SDS011;54088;52.238;21.104;2022-08-03T07:32:12;20.58;;;18.60;;
67160;SDS011;54088;52.238;21.104;2022-08-03T07:34:38;20.92;;;18.85;;
67160;SDS011;54088;52.238;21.104;2022-08-03T07:37:03;19.50;;;17.45;;
67160;SDS011;54088;52.238;21.104;2022-08-03T07:39:29;21.00;;;17.98;;
67160;SDS011;54088;52.238;21.104;2022-08-03T07:41:55;18.65;;;16.63;;
67160;SDS011;54088;52.238;21.104;2022-08-03T07:44:20;20.63;;;18.00;;
67160;SDS011;54088;52.238;21.104;2022-08-03T07:46:46;22.30;;;19.90;;
67160;SDS011;54088;52.238;21.104;2022-08-03T07:49:12;21.45;;;19.17;;
67160;SDS011;54088;52.238;21.104;2022-08-03T07:51:38;19.05;;;17.13;;
67160;SDS011;54088;52.238;21.104;2022-08-03T07:54:04;21.30;;;19.10;;
67160;SDS011;54088;52.238;21.104;2022-08-03T07:56:30;21.73;;;18.90;;
67160;SDS011;54088;52.238;21.104;2022-08-03T07:58:55;21.02;;;19.02;;
67160;SDS011;54088;52.238;21.104;2022-08-03T08:01:22;19.75;;;17.65;;
67160;SDS011;54088;52.238;21.104;2022-08-03T08:03:48;17.35;;;15.45;;
67160;SDS011;54088;52.238;21.104;2022-08-03T08:06:14;19.58;;;17.65;;
67160;SDS011;54088;52.238;21.104;2022-08-03T08:08:40;19.85;;;17.90;;
67160;SDS011;54088;52.238;21.104;2022-08-03T08:11:06;19.35;;;17.35;;
67160;SDS011;54088;52.238;21.104;2022-08-03T08:13:31;21.90;;;19.00;;
67160;SDS011;54088;52.238;21.104;2022-08-03T08:15:57;22.05;;;20.05;;
67160;SDS011;54088;52.238;21.104;2022-08-03T08:18:23;21.33;;;19.27;;
67160;SDS011;54088;52.238;21.104;2022-08-03T08:20:49;21.90;;;19.58;;
67160;SDS011;54088;52.238;21.104;2022-08-03T08:23:16;21.67;;;19.15;;
67160;SDS011;54088;52.238;21.104;2022-08-03T08:25:47;19.15;;;17.17;;
67160;SDS011;54088;52.238;21.104;2022-08-03T08:28:13;26.50;;;17.70;;
67160;SDS011;54088;52.238;21.104;2022-08-03T08:30:40;20.38;;;18.25;;
67160;SDS011;54088;52.238;21.104;2022-08-03T08:33:06;20.77;;;18.45;;
67160;SDS011;54088;52.238;21.104;2022-08-03T08:35:32;19.20;;;17.30;;
67160;SDS011;54088;52.238;21.104;2022-08-03T08:37:58;21.98;;;19.40;;
67160;SDS011;54088;52.238;21.104;2022-08-03T08:40:24;22.35;;;16.70;;
67160;SDS011;54088;52.238;21.104;2022-08-03T08:42:52;23.77;;;15.95;;
67160;SDS011;54088;52.238;21.104;2022-08-03T08:45:18;20.83;;;15.23;;
67160;SDS011;54088;52.238;21.104;2022-08-03T08:47:44;16.40;;;11.50;;
67160;SDS011;54088;52.238;21.104;2022-08-03T08:50:11;13.52;;;9.30;;
67160;SDS011;54088;52.238;21.104;2022-08-03T08:52:38;11.63;;;7.97;;
67160;SDS011;54088;52.238;21.104;2022-08-03T08:55:09;12.82;;;7.85;;
67160;SDS011;54088;52.238;21.104;2022-08-03T09:00:09;12.45;;;6.55;;
67160;SDS011;54088;52.238;21.104;2022-08-03T09:02:39;11.93;;;6.97;;
67160;SDS011;54088;52.238;21.104;2022-08-03T09:05:09;11.30;;;7.40;;
67160;SDS011;54088;52.238;21.104;2022-08-03T09:07:43;10.43;;;6.57;;
67160;SDS011;54088;52.238;21.104;2022-08-03T09:10:10;12.23;;;6.82;;
67160;SDS011;54088;52.238;21.104;2022-08-03T09:12:47;15.00;;;6.90;;
67160;SDS011;54088;52.238;21.104;2022-08-03T09:15:27;10.55;;;6.30;;
67160;SDS011;54088;52.238;21.104;2022-08-03T09:17:56;10.90;;;6.05;;
67160;SDS011;54088;52.238;21.104;2022-08-03T09:20:23;11.98;;;6.03;;
67160;SDS011;54088;52.238;21.104;2022-08-03T09:25:36;10.63;;;6.22;;
67160;SDS011;54088;52.238;21.104;2022-08-03T09:28:03;12.95;;;6.20;;
67160;SDS011;54088;52.238;21.104;2022-08-03T09:30:40;9.38;;;6.25;;
67160;SDS011;54088;52.238;21.104;2022-08-03T09:33:08;9.43;;;5.55;;
67160;SDS011;54088;52.238;21.104;2022-08-03T09:35:46;10.32;;;6.28;;
67160;SDS011;54088;52.238;21.104;2022-08-03T09:40:40;11.23;;;6.32;;
67160;SDS011;54088;52.238;21.104;2022-08-03T09:43:07;9.85;;;5.18;;
67160;SDS011;54088;52.238;21.104;2022-08-03T09:45:34;12.50;;;6.25;;
67160;SDS011;54088;52.238;21.104;2022-08-03T09:50:53;12.02;;;6.15;;
67160;SDS011;54088;52.238;21.104;2022-08-03T09:53:25;9.38;;;6.35;;
67160;SDS011;54088;52.238;21.104;2022-08-03T09:56:01;13.85;;;6.03;;
67160;SDS011;54088;52.238;21.104;2022-08-03T09:58:28;14.63;;;6.57;;
67160;SDS011;54088;52.238;21.104;2022-08-03T10:01:02;11.13;;;6.65;;
67160;SDS011;54088;52.238;21.104;2022-08-03T10:03:29;12.93;;;6.47;;
67160;SDS011;54088;52.238;21.104;2022-08-03T10:05:57;10.68;;;6.18;;
67160;SDS011;54088;52.238;21.104;2022-08-03T10:08:23;17.05;;;5.97;;
67160;SDS011;54088;52.238;21.104;2022-08-03T10:10:50;11.60;;;6.32;;
67160;SDS011;54088;52.238;21.104;2022-08-03T10:13:18;10.43;;;6.50;;
67160;SDS011;54088;52.238;21.104;2022-08-03T10:15:45;11.05;;;6.13;;
67160;SDS011;54088;52.238;21.104;2022-08-03T10:18:11;13.85;;;7.28;;
67160;SDS011;54088;52.238;21.104;2022-08-03T10:20:42;10.23;;;6.43;;
67160;SDS011;54088;52.238;21.104;2022-08-03T10:23:13;9.07;;;6.45;;
67160;SDS011;54088;52.238;21.104;2022-08-03T10:25:41;12.40;;;6.07;;
67160;SDS011;54088;52.238;21.104;2022-08-03T10:28:12;10.18;;;6.30;;
67160;SDS011;54088;52.238;21.104;2022-08-03T10:30:43;9.27;;;4.97;;
67160;SDS011;54088;52.238;21.104;2022-08-03T10:33:17;9.95;;;6.35;;
67160;SDS011;54088;52.238;21.104;2022-08-03T10:35:51;6.85;;;4.63;;
67160;SDS011;54088;52.238;21.104;2022-08-03T10:38:53;7.65;;;5.50;;
67160;SDS011;54088;52.238;21.104;2022-08-03T10:41:17;6.72;;;4.97;;
67160;SDS011;54088;52.238;21.104;2022-08-03T10:43:58;11.88;;;6.53;;
67160;SDS011;54088;52.238;21.104;2022-08-03T10:46:30;8.25;;;5.55;;
67160;SDS011;54088;52.238;21.104;2022-08-03T10:48:58;7.40;;;5.88;;
67160;SDS011;54088;52.238;21.104;2022-08-03T11:32:53;9.07;;;6.28;;
67160;SDS011;54088;52.238;21.104;2022-08-03T11:35:28;11.82;;;6.38;;
67160;SDS011;54088;52.238;21.104;2022-08-03T11:40:48;9.52;;;6.55;;
67160;SDS011;54088;52.238;21.104;2022-08-03T11:46:09;9.38;;;5.47;;
67160;SDS011;54088;52.238;21.104;2022-08-03T11:48:38;9.35;;;6.28;;
67160;SDS011;54088;52.238;21.104;2022-08-03T11:51:07;7.18;;;5.80;;
67160;SDS011;54088;52.238;21.104;2022-08-03T11:56:42;10.18;;;5.85;;
67160;SDS011;54088;52.238;21.104;2022-08-03T11:59:12;11.10;;;5.75;;
67160;SDS011;54088;52.238;21.104;2022-08-03T12:01:38;8.10;;;5.50;;
67160;SDS011;54088;52.238;21.104;2022-08-03T12:04:04;8.60;;;5.78;;
67160;SDS011;54088;52.238;21.104;2022-08-03T12:06:30;10.88;;;6.90;;
67160;SDS011;54088;52.238;21.104;2022-08-03T12:09:16;6.93;;;5.45;;
67160;SDS011;54088;52.238;21.104;2022-08-03T12:11:42;8.65;;;5.63;;
67160;SDS011;54088;52.238;21.104;2022-08-03T12:14:15;8.20;;;5.57;;
67160;SDS011;54088;52.238;21.104;2022-08-03T12:16:45;7.85;;;5.60;;
67160;SDS011;54088;52.238;21.104;2022-08-03T12:19:12;9.70;;;6.40;;
67160;SDS011;54088;52.238;21.104;2022-08-03T12:21:45;10.48;;;6.50;;
67160;SDS011;54088;52.238;21.104;2022-08-03T12:24:12;8.77;;;6.00;;
67160;SDS011;54088;52.238;21.104;2022-08-03T12:26:47;7.53;;;4.82;;
67160;SDS011;54088;52.238;21.104;2022-08-03T12:29:15;8.82;;;5.57;;
67160;SDS011;54088;52.238;21.104;2022-08-03T12:31:42;7.88;;;5.35;;
67160;SDS011;54088;52.238;21.104;2022-08-03T12:34:08;8.35;;;5.40;;
67160;SDS011;54088;52.238;21.104;2022-08-03T12:36:34;9.73;;;6.18;;
67160;SDS011;54088;52.238;21.104;2022-08-03T12:39:05;11.20;;;6.30;;
67160;SDS011;54088;52.238;21.104;2022-08-03T12:43:57;8.35;;;5.47;;
67160;SDS011;54088;52.238;21.104;2022-08-03T12:46:28;8.68;;;6.70;;
67160;SDS011;54088;52.238;21.104;2022-08-03T12:51:36;10.88;;;5.78;;
67160;SDS011;54088;52.238;21.104;2022-08-03T12:54:26;10.00;;;6.30;;
67160;SDS011;54088;52.238;21.104;2022-08-03T12:59:45;9.20;;;6.30;;
67160;SDS011;54088;52.238;21.104;2022-08-03T13:02:19;7.07;;;5.30;;
67160;SDS011;54088;52.238;21.104;2022-08-03T13:04:49;10.05;;;5.80;;
67160;SDS011;54088;52.238;21.104;2022-08-03T13:07:17;7.80;;;5.82;;
67160;SDS011;54088;52.238;21.104;2022-08-03T13:09:44;7.60;;;5.30;;
67160;SDS011;54088;52.238;21.104;2022-08-03T13:12:18;8.68;;;6.13;;
67160;SDS011;54088;52.238;21.104;2022-08-03T13:14:46;9.27;;;5.30;;
67160;SDS011;54088;52.238;21.104;2022-08-03T13:17:16;7.32;;;6.20;;
67160;SDS011;54088;52.238;21.104;2022-08-03T13:19:42;7.93;;;5.63;;
67160;SDS011;54088;52.238;21.104;2022-08-03T13:22:41;9.75;;;5.95;;
67160;SDS011;54088;52.238;21.104;2022-08-03T13:25:00;9.10;;;5.47;;
67160;SDS011;54088;52.238;21.104;2022-08-03T13:27:27;7.60;;;5.78;;
67160;SDS011;54088;52.238;21.104;2022-08-03T13:29:54;7.68;;;5.53;;
67160;SDS011;54088;52.238;21.104;2022-08-03T13:32:20;7.05;;;5.13;;
67160;SDS011;54088;52.238;21.104;2022-08-03T13:34:46;6.80;;;5.65;;
67160;SDS011;54088;52.238;21.104;2022-08-03T13:37:12;6.72;;;5.25;;
67160;SDS011;54088;52.238;21.104;2022-08-03T13:39:38;7.35;;;6.13;;
67160;SDS011;54088;52.238;21.104;2022-08-03T13:42:05;7.65;;;5.70;;
67160;SDS011;54088;52.238;21.104;2022-08-03T13:44:31;7.63;;;5.90;;
67160;SDS011;54088;52.238;21.104;2022-08-03T13:46:57;9.75;;;6.03;;
67160;SDS011;54088;52.238;21.104;2022-08-03T13:49:24;7.15;;;5.05;;
67160;SDS011;54088;52.238;21.104;2022-08-03T13:51:50;8.32;;;5.80;;
67160;SDS011;54088;52.238;21.104;2022-08-03T13:54:16;9.02;;;5.93;;
67160;SDS011;54088;52.238;21.104;2022-08-03T13:56:43;7.15;;;5.60;;
67160;SDS011;54088;52.238;21.104;2022-08-03T13:59:14;8.38;;;5.03;;
67160;SDS011;54088;52.238;21.104;2022-08-03T14:01:39;8.25;;;5.22;;
67160;SDS011;54088;52.238;21.104;2022-08-03T14:04:05;7.55;;;6.20;;
67160;SDS011;54088;52.238;21.104;2022-08-03T14:06:30;9.43;;;5.70;;
67160;SDS011;54088;52.238;21.104;2022-08-03T14:08:56;8.45;;;4.95;;
67160;SDS011;54088;52.238;21.104;2022-08-03T14:11:22;7.43;;;4.82;;
67160;SDS011;54088;52.238;21.104;2022-08-03T14:13:47;7.47;;;5.47;;
67160;SDS011;54088;52.238;21.104;2022-08-03T14:16:13;7.00;;;4.95;;
67160;SDS011;54088;52.238;21.104;2022-08-03T14:18:39;8.00;;;5.00;;
67160;SDS011;54088;52.238;21.104;2022-08-03T14:21:06;6.30;;;5.22;;
67160;SDS011;54088;52.238;21.104;2022-08-03T14:23:32;6.53;;;5.00;;
67160;SDS011;54088;52.238;21.104;2022-08-03T14:26:01;7.35;;;4.65;;
67160;SDS011;54088;52.238;21.104;2022-08-03T14:28:27;8.43;;;5.10;;
67160;SDS011;54088;52.238;21.104;2022-08-03T14:30:53;8.30;;;5.20;;
67160;SDS011;54088;52.238;21.104;2022-08-03T14:33:20;8.35;;;5.75;;
67160;SDS011;54088;52.238;21.104;2022-08-03T14:35:46;7.95;;;5.38;;
67160;SDS011;54088;52.238;21.104;2022-08-03T14:38:13;7.05;;;5.20;;
67160;SDS011;54088;52.238;21.104;2022-08-03T14:44:00;10.07;;;5.32;;
67160;SDS011;54088;52.238;21.104;2022-08-03T14:46:28;6.15;;;4.85;;
67160;SDS011;54088;52.238;21.104;2022-08-03T14:48:54;8.05;;;5.10;;
67160;SDS011;54088;52.238;21.104;2022-08-03T14:51:20;7.55;;;5.07;;
67160;SDS011;54088;52.238;21.104;2022-08-03T14:53:45;6.60;;;5.18;;
67160;SDS011;54088;52.238;21.104;2022-08-03T14:56:11;7.70;;;5.05;;
67160;SDS011;54088;52.238;21.104;2022-08-03T14:58:37;8.90;;;5.38;;
67160;SDS011;54088;52.238;21.104;2022-08-03T15:01:02;8.57;;;5.47;;
67160;SDS011;54088;52.238;21.104;2022-08-03T15:03:28;7.25;;;4.70;;
67160;SDS011;54088;52.238;21.104;2022-08-03T15:05:54;7.68;;;5.40;;
67160;SDS011;54088;52.238;21.104;2022-08-03T15:08:21;6.10;;;5.07;;
67160;SDS011;54088;52.238;21.104;2022-08-03T15:10:48;6.75;;;5.15;;
67160;SDS011;54088;52.238;21.104;2022-08-03T15:13:14;8.27;;;5.25;;
67160;SDS011;54088;52.238;21.104;2022-08-03T15:15:40;8.43;;;5.07;;
67160;SDS011;54088;52.238;21.104;2022-08-03T15:18:06;7.10;;;5.47;;
67160;SDS011;54088;52.238;21.104;2022-08-03T15:20:32;7.65;;;5.18;;
67160;SDS011;54088;52.238;21.104;2022-08-03T15:22:58;7.20;;;5.28;;
67160;SDS011;54088;52.238;21.104;2022-08-03T15:25:24;6.53;;;5.40;;
67160;SDS011;54088;52.238;21.104;2022-08-03T15:27:50;6.28;;;4.97;;
67160;SDS011;54088;52.238;21.104;2022-08-03T15:30:19;8.02;;;5.63;;
67160;SDS011;54088;52.238;21.104;2022-08-03T15:32:45;7.38;;;5.07;;
67160;SDS011;54088;52.238;21.104;2022-08-03T15:35:10;5.55;;;4.95;;
67160;SDS011;54088;52.238;21.104;2022-08-03T15:37:36;7.57;;;5.00;;
67160;SDS011;54088;52.238;21.104;2022-08-03T15:40:02;8.20;;;5.60;;
67160;SDS011;54088;52.238;21.104;2022-08-03T15:42:29;6.57;;;5.30;;
67160;SDS011;54088;52.238;21.104;2022-08-03T15:44:56;8.25;;;5.65;;
67160;SDS011;54088;52.238;21.104;2022-08-03T15:47:22;6.57;;;5.28;;
67160;SDS011;54088;52.238;21.104;2022-08-03T15:49:48;9.00;;;6.35;;